Longville, MN (56655)

10:57 AM CDT on September 26, 2016 (GMT -0500)
Long Lake | | Change Station

Elev 1365 ft 47.02 °N, 94.18 °W | Updated 9 minutes ago

Scattered Clouds
Scattered Clouds
53.4 °F
Feels Like 53.4 °F
N
5.0
Wind Variable Wind from WSW
Gusts 9.0 mph

Today
High -- | Low -- °F
--% Chance of Precip.
Yesterday
High -- | Low -- °F
Precip. -- in
Pressure 29.83 in
Visibility 10.0 miles
Clouds Scattered Clouds 3100 ft
Dew Point 45 °F
Humidity 73%
Rainfall 0.01 in
Snow Depth Not available.
7:09 AM 7:05 PM
Waning Crescent, 18% visible
METAR KXVG 261455Z AUTO 29012G24KT 270V340 10SM SCT031 11/05 A2983 RMK AO2
Pressure 29.83 in
Visibility 10.0 miles
Clouds Scattered Clouds 3100 ft
Dew Point 45 °F
Humidity 73%
Rainfall 0.01 in
Snow Depth Not available.
7:09 AM 7:05 PM
Waning Crescent, 18% visible
METAR KXVG 261455Z AUTO 29012G24KT 270V340 10SM SCT031 11/05 A2983 RMK AO2

10-Day Weather Forecast

Almanac

Astronomy

Sep. 26, 2016 Rise Set
Actual Time
Civil Twilight
Nautical Twilight
Astronomical Twilight
Moon
Length of Visible Light
Length of Day
Tomorrow will be .
, % of the Moon is Illuminated

Today's Extremes

State Highs State Lows

Community

WunderPhotos

Upload Photos

1,941,906 photos uploaded!

WunderBlog® & News

Nearby

Air Quality

  Air Quality AQ Index Pollutant
Not available.

Snow Depth

Station Depth Elevation

Earthquake Activity

City Distance Mag. Time & Date
Minimum magnitude displayed is 2.5.

Coastal Water Temperatures

Place Temperature

Stations

Nearby Weather Stations

Station Location Temp. Windchill Dew Point Humidity Wind Precip. Elev Updated Type
                   

Watches & Warnings

There are currently no watches in effect.